Cacapava do Sul Airport


Codes: SSWS/0
Name: Cacapava do Sul Airport
City: Cacapava Do Sul
Country: Brazil
Elevation: 1312 ft.

Photos at Cacapava do Sul Airport


   Photos courtesy of SpottingLog. You can add your own sightings and photos by signing up for a free trial today.



No photos found.

Weather at Cacapava do Sul Airport


Time (UTC)DescriptionTempratureWindCloud coverageVisibilityPressureHumidity
21-Feb-2024 03:00Clear Sky16°C4 mph, SE0%10000m1012hPa91%
21-Feb-2024 06:00Clear Sky15°C4 mph, SE0%10000m1012hPa94%
21-Feb-2024 09:00Clear Sky15°C4 mph, SE6%10000m1011hPa96%
21-Feb-2024 12:00Clear Sky21°C9 mph, E7%10000m1011hPa69%
21-Feb-2024 15:00Clear Sky27°C7 mph, E0%10000m1010hPa39%
21-Feb-2024 18:00Clear Sky30°C7 mph, E0%10000m1007hPa31%
21-Feb-2024 21:00Clear Sky28°C9 mph, E0%10000m1006hPa42%
22-Feb-2024 00:00Clear Sky21°C9 mph, E2%10000m1009hPa68%
22-Feb-2024 03:00Scattered Clouds17°C4 mph, SE34%10000m1010hPa93%
22-Feb-2024 06:00Few Clouds16°C2 mph, SE20%10000m1008hPa98%
22-Feb-2024 09:00Scattered Clouds16°C2 mph, SE42%10000m1008hPa98%
22-Feb-2024 12:00Scattered Clouds22°C7 mph, E27%10000m1009hPa73%
22-Feb-2024 15:00Clear Sky30°C4 mph, NE1%10000m1008hPa46%
22-Feb-2024 18:00Clear Sky32°C4 mph, NE1%10000m1005hPa34%
22-Feb-2024 21:00Few Clouds31°C2 mph, NE21%10000m1004hPa39%
23-Feb-2024 00:00Scattered Clouds23°C4 mph, E28%10000m1007hPa61%
23-Feb-2024 03:00Scattered Clouds20°C2 mph, E26%10000m1008hPa83%
23-Feb-2024 06:00Broken Clouds19°C2 mph, NE59%10000m1007hPa85%
23-Feb-2024 09:00Overcast Clouds19°C2 mph, NE99%10000m1009hPa86%
23-Feb-2024 12:00Overcast Clouds26°C2 mph, N100%10000m1010hPa61%
23-Feb-2024 15:00Scattered Clouds33°C7 mph, NW38%10000m1009hPa38%
23-Feb-2024 18:00Scattered Clouds35°C7 mph, NW29%10000m1006hPa28%
23-Feb-2024 21:00Light Rain23°C4 mph, SW70%10000m1010hPa74%
24-Feb-2024 00:00Light Rain20°C2 mph, SW71%10000m1012hPa86%
24-Feb-2024 03:00Overcast Clouds19°C2 mph, S93%10000m1013hPa88%
24-Feb-2024 06:00Overcast Clouds19°C2 mph, E90%10000m1012hPa91%
24-Feb-2024 09:00Scattered Clouds18°C4 mph, S29%10000m1014hPa93%
24-Feb-2024 12:00Scattered Clouds24°C7 mph, S48%10000m1016hPa72%
24-Feb-2024 15:00Overcast Clouds30°C4 mph, SE88%10000m1015hPa50%
24-Feb-2024 18:00Overcast Clouds28°C9 mph, S91%10000m1014hPa55%
24-Feb-2024 21:00Light Rain24°C13 mph, SE97%10000m1016hPa80%
25-Feb-2024 00:00Overcast Clouds21°C11 mph, SE91%10000m1018hPa86%
25-Feb-2024 03:00Overcast Clouds21°C9 mph, SE99%10000m1019hPa87%
25-Feb-2024 06:00Light Rain20°C9 mph, SE100%10000m1019hPa91%
25-Feb-2024 09:00Light Rain19°C7 mph, SE100%10000m1020hPa97%
25-Feb-2024 12:00Light Rain19°C7 mph, SE100%10000m1021hPa98%
25-Feb-2024 15:00Light Rain20°C9 mph, SE100%10000m1021hPa96%
25-Feb-2024 18:00Overcast Clouds20°C11 mph, SE100%10000m1019hPa90%
25-Feb-2024 21:00Overcast Clouds19°C11 mph, SE100%10000m1019hPa86%
26-Feb-2024 00:00Overcast Clouds19°C11 mph, SE100%10000m1020hPa88%